Time;durP1;ratioP1;P1;durP2;ratioP2;P2;SDS_P1;SDS_P2;PMS_P1;PMS_P2;Temp;Humidity;BMP_temperature;BMP_pressure;BME280_temperature;BME280_humidity;BME280_pressure;Samples;Min_cycle;Max_cycle;Signal;HPM_P1;HPM_P2
2023/03/26 00:01:25;;;;;;;28.58;5.18;;;;;;;8.08;98.19;100668.75;4927466;29;20059;-66
2023/03/26 00:03:56;;;;;;;23.40;5.18;;;;;;;8.07;98.11;100677.34;4916217;29;20509;-65
2023/03/26 00:06:23;;;;;;;26.98;5.45;;;;;;;8.05;97.98;100673.81;4934572;29;20502;-65
2023/03/26 00:08:51;;;;;;;28.75;5.28;;;;;;;8.02;97.73;100673.72;4934293;29;20019;-66
2023/03/26 00:11:19;;;;;;;23.50;4.55;;;;;;;7.98;97.77;100674.47;4922775;29;20036;-65
2023/03/26 00:13:44;;;;;;;25.17;5.10;;;;;;;7.94;97.98;100670.91;4881316;29;20024;-65
2023/03/26 00:16:12;;;;;;;25.45;4.57;;;;;;;7.94;97.65;100677.81;4918932;29;20083;-65
2023/03/26 00:18:39;;;;;;;28.55;4.80;;;;;;;7.90;98.22;100673.34;4918803;29;20106;-65
2023/03/26 00:21:06;;;;;;;26.25;4.82;;;;;;;7.88;97.57;100669.81;4911444;29;20036;-65
2023/03/26 00:23:34;;;;;;;24.55;4.88;;;;;;;7.84;97.81;100669.72;4914396;29;20106;-65
2023/03/26 00:26:01;;;;;;;24.10;4.43;;;;;;;7.82;97.78;100673.09;4914531;29;20028;-65
2023/03/26 00:28:28;;;;;;;32.90;4.72;;;;;;;7.79;97.55;100665.22;4918379;29;20119;-65
2023/03/26 00:30:59;;;;;;;25.45;4.68;;;;;;;7.75;97.90;100664.25;4917777;29;20047;-65
2023/03/26 00:33:25;;;;;;;22.80;4.38;;;;;;;7.75;97.67;100659.06;4925834;29;20510;-65
2023/03/26 00:35:52;;;;;;;23.20;4.88;;;;;;;7.74;97.56;100652.09;4925682;29;20063;-65
2023/03/26 00:38:21;;;;;;;22.58;4.72;;;;;;;7.74;97.37;100649.50;4925916;29;20130;-65
2023/03/26 00:40:49;;;;;;;28.35;4.97;;;;;;;7.72;97.37;100651.19;4925203;29;20085;-65
2023/03/26 00:43:19;;;;;;;20.47;4.13;;;;;;;7.69;97.23;100643.31;4926561;29;20122;-65
2023/03/26 00:45:45;;;;;;;23.38;4.60;;;;;;;7.68;97.34;100644.13;4913421;29;20043;-65
2023/03/26 00:48:11;;;;;;;27.10;4.65;;;;;;;7.68;97.16;100645.88;4925296;29;20024;-65
2023/03/26 00:50:37;;;;;;;21.30;4.63;;;;;;;7.67;97.05;100650.16;4930109;29;20035;-65
2023/03/26 00:53:02;;;;;;;31.40;4.57;;;;;;;7.62;97.11;100643.94;4924275;29;20032;-65
2023/03/26 00:55:27;;;;;;;27.15;4.80;;;;;;;7.60;97.35;100635.22;4932343;29;20027;-65
2023/03/26 00:57:54;;;;;;;17.60;3.97;;;;;;;7.57;97.51;100637.72;4933446;29;20020;-65
2023/03/26 01:00:28;;;;;;;30.60;4.65;;;;;;;7.54;97.78;100633.31;4931275;29;20028;-65
2023/03/26 01:02:54;;;;;;;22.92;4.63;;;;;;;7.53;97.78;100634.16;4923457;29;20431;-65
2023/03/26 01:05:34;;;;;;;23.63;4.90;;;;;;;7.53;98.47;100625.47;4929111;29;20067;-65
2023/03/26 01:08:16;;;;;;;24.90;4.45;;;;;;;7.50;98.28;100618.47;4916107;29;20031;-65
2023/03/26 01:10:49;;;;;;;20.08;4.35;;;;;;;7.47;97.93;100608.00;4929313;29;20487;-65
2023/03/26 01:13:16;;;;;;;23.85;4.85;;;;;;;7.44;98.14;100611.41;4927261;29;20525;-65
2023/03/26 01:15:42;;;;;;;24.50;4.10;;;;;;;7.40;97.78;100599.19;4924415;29;20028;-65
2023/03/26 01:18:08;;;;;;;25.85;4.70;;;;;;;7.35;97.94;100592.94;4912678;29;20020;-65
2023/03/26 01:20:45;;;;;;;32.60;4.60;;;;;;;7.31;98.17;100598.84;4916240;29;20038;-65
2023/03/26 01:23:16;;;;;;;24.80;5.20;;;;;;;7.29;98.21;100600.53;4912104;29;20028;-65
2023/03/26 01:25:47;;;;;;;25.45;4.82;;;;;;;7.25;98.71;100589.16;4920479;29;20099;-65
2023/03/26 01:28:16;;;;;;;25.40;4.45;;;;;;;7.22;98.44;100583.88;4912382;29;20502;-65
2023/03/26 01:30:57;;;;;;;23.58;4.07;;;;;;;7.22;98.85;100586.47;4917774;29;20035;-65
2023/03/26 01:33:35;;;;;;;18.05;3.85;;;;;;;7.19;98.83;100573.44;4910653;29;20044;-65
2023/03/26 01:36:09;;;;;;;27.92;5.28;;;;;;;7.19;98.65;100567.38;4901001;29;20024;-65
2023/03/26 01:38:47;;;;;;;20.80;4.70;;;;;;;7.19;98.74;100563.06;4917831;29;20035;-65
2023/03/26 01:41:22;;;;;;;21.15;4.38;;;;;;;7.17;98.45;100563.84;4919775;29;20028;-65
2023/03/26 01:44:14;;;;;;;21.98;4.38;;;;;;;7.16;98.30;100559.50;4903343;29;20048;-65
2023/03/26 01:46:41;;;;;;;14.77;3.78;;;;;;;7.17;98.12;100569.03;4900073;29;20028;-65
2023/03/26 01:49:11;;;;;;;19.05;3.85;;;;;;;7.16;98.25;100565.56;4932930;29;20027;-65
2023/03/26 01:51:38;;;;;;;23.27;3.85;;;;;;;7.13;98.37;100562.88;4933168;29;20042;-65
2023/03/26 01:54:07;;;;;;;24.17;4.70;;;;;;;7.11;98.11;100561.94;4932987;29;20206;-65
2023/03/26 01:56:55;;;;;;;21.77;4.57;;;;;;;7.13;98.61;100562.88;4928347;29;20478;-65
2023/03/26 01:59:58;;;;;;;18.02;4.18;;;;;;;7.12;98.62;100555.91;4926442;29;20059;-65
2023/03/26 02:02:34;;;;;;;21.83;4.03;;;;;;;7.11;98.41;100546.38;4906871;29;20050;-65
2023/03/26 02:05:06;;;;;;;21.38;4.82;;;;;;;7.10;98.14;100537.75;4908804;29;20751;-65
2023/03/26 02:07:54;;;;;;;23.40;4.07;;;;;;;7.08;98.60;100538.50;4925570;29;20034;-65
2023/03/26 02:10:36;;;;;;;20.55;3.85;;;;;;;7.03;98.58;100540.97;4922361;29;20547;-65
2023/03/26 02:13:02;;;;;;;21.35;4.00;;;;;;;7.00;98.84;100535.69;4915601;29;20023;-65
2023/03/26 02:15:27;;;;;;;18.65;3.80;;;;;;;6.95;98.74;100535.53;4920922;29;20028;-65
2023/03/26 02:17:52;;;;;;;23.85;4.20;;;;;;;6.90;99.43;100526.72;4923159;29;20103;-65
2023/03/26 02:20:19;;;;;;;22.80;4.82;;;;;;;6.87;99.19;100512.81;4913532;29;20043;-65
2023/03/26 02:22:46;;;;;;;23.50;4.40;;;;;;;6.88;99.27;100517.13;4888230;29;20399;-65
2023/03/26 02:25:14;;;;;;;18.75;4.07;;;;;;;6.87;99.23;100515.38;4917842;29;20037;-64
2023/03/26 02:27:41;;;;;;;21.23;4.30;;;;;;;6.86;99.23;100505.84;4915820;29;20028;-65
2023/03/26 02:30:09;;;;;;;20.95;4.53;;;;;;;6.83;99.61;100503.16;4908896;29;20039;-65
2023/03/26 02:32:35;;;;;;;23.13;3.97;;;;;;;6.84;99.63;100507.53;4926482;29;20159;-65
2023/03/26 02:35:00;;;;;;;20.33;3.95;;;;;;;6.85;99.19;100504.97;4923400;29;20114;-65
2023/03/26 02:37:26;;;;;;;24.92;4.25;;;;;;;6.84;99.19;100503.22;4905070;29;20032;-65
2023/03/26 02:39:51;;;;;;;23.23;4.32;;;;;;;6.84;99.46;100504.94;4916714;29;20031;-65
2023/03/26 02:42:17;;;;;;;21.13;4.18;;;;;;;6.83;99.85;100496.25;4924387;29;20031;-65
2023/03/26 02:44:42;;;;;;;23.00;4.13;;;;;;;6.83;99.70;100487.63;4922396;29;20525;-65
2023/03/26 02:47:07;;;;;;;19.92;4.03;;;;;;;6.83;100.00;100488.50;4919632;29;20038;-65
2023/03/26 02:49:33;;;;;;;27.90;4.32;;;;;;;6.84;100.00;100479.91;4925303;29;20398;-66
2023/03/26 02:51:59;;;;;;;20.02;3.55;;;;;;;6.84;99.95;100482.50;4935512;29;20071;-64
2023/03/26 02:54:25;;;;;;;19.73;4.50;;;;;;;6.85;100.00;100470.41;4919244;29;20391;-65
2023/03/26 02:56:50;;;;;;;19.10;3.90;;;;;;;6.85;100.00;100467.81;4935744;29;20031;-65
2023/03/26 02:59:15;;;;;;;21.45;3.95;;;;;;;6.85;100.00;100462.66;4932960;29;20040;-65
2023/03/26 03:01:41;;;;;;;20.98;3.75;;;;;;;6.85;100.00;100465.22;4925246;29;20441;-65
2023/03/26 03:04:11;;;;;;;19.65;4.05;;;;;;;6.86;100.00;100465.28;4932783;29;20020;-65
2023/03/26 03:06:37;;;;;;;23.80;3.83;;;;;;;6.89;100.00;100461.91;4924980;29;20039;-65
2023/03/26 03:09:04;;;;;;;18.40;4.07;;;;;;;6.88;100.00;100445.50;4935303;29;20023;-65
2023/03/26 03:11:29;;;;;;;16.83;3.35;;;;;;;6.87;100.00;100448.06;4926063;29;20394;-65
2023/03/26 03:13:55;;;;;;;22.05;4.28;;;;;;;6.89;100.00;100449.84;4935381;29;20024;-65
2023/03/26 03:16:20;;;;;;;16.15;3.85;;;;;;;6.90;100.00;100448.16;4934038;29;20026;-64
2023/03/26 03:18:52;;;;;;;21.92;4.18;;;;;;;6.93;100.00;100435.28;4911227;29;20111;-65
2023/03/26 03:21:19;;;;;;;20.63;4.18;;;;;;;6.93;100.00;100437.88;4922257;29;20031;-65
2023/03/26 03:23:44;;;;;;;23.30;4.18;;;;;;;6.94;100.00;100427.56;4922667;29;20044;-65
2023/03/26 03:26:14;;;;;;;24.92;4.50;;;;;;;6.96;100.00;100431.06;4917091;29;20032;-65
2023/03/26 03:28:40;;;;;;;22.63;4.28;;;;;;;6.98;100.00;100431.16;4890193;29;20406;-65
2023/03/26 03:31:07;;;;;;;20.25;4.65;;;;;;;6.96;100.00;100420.72;4920518;29;20035;-65
2023/03/26 03:33:33;;;;;;;17.73;3.78;;;;;;;6.99;100.00;100426.84;4926273;29;20086;-65
2023/03/26 03:35:58;;;;;;;22.38;3.95;;;;;;;7.00;100.00;100419.13;4918598;29;20114;-65
2023/03/26 03:38:24;;;;;;;15.88;3.53;;;;;;;7.01;100.00;100417.38;4928313;29;20036;-65
2023/03/26 03:40:49;;;;;;;19.25;4.05;;;;;;;7.03;100.00;100424.38;4918580;29;20031;-65
2023/03/26 03:43:15;;;;;;;19.23;4.03;;;;;;;7.04;100.00;100418.38;4923912;29;20046;-65
2023/03/26 03:45:40;;;;;;;15.70;3.75;;;;;;;7.05;100.00;100411.47;4916729;29;20078;-65
2023/03/26 03:48:06;;;;;;;19.38;3.83;;;;;;;7.06;100.00;100414.13;4919940;29;20135;-65
2023/03/26 03:50:31;;;;;;;17.17;3.67;;;;;;;7.08;100.00;100408.97;4915858;29;20478;-65
2023/03/26 03:52:57;;;;;;;20.35;3.83;;;;;;;7.09;100.00;100408.16;4920103;29;20056;-65
2023/03/26 03:55:26;;;;;;;20.52;3.40;;;;;;;7.11;100.00;100406.47;4901115;29;20036;-64
2023/03/26 03:57:52;;;;;;;21.95;3.70;;;;;;;7.11;100.00;100404.78;4923587;29;20506;-65
2023/03/26 04:00:17;;;;;;;15.85;3.03;;;;;;;7.14;100.00;100404.88;4912387;29;20036;-65
2023/03/26 04:02:44;;;;;;;20.25;3.78;;;;;;;7.17;100.00;100398.00;4924265;29;20047;-65
2023/03/26 04:05:11;;;;;;;15.82;3.53;;;;;;;7.20;100.00;100391.22;4931430;29;20043;-66
2023/03/26 04:07:37;;;;;;;11.80;2.90;;;;;;;7.24;100.00;100395.69;4915778;29;20039;-64
2023/03/26 04:10:03;;;;;;;17.38;3.20;;;;;;;7.25;100.00;100378.41;4926388;29;20024;-65
2023/03/26 04:12:29;;;;;;;18.42;3.10;;;;;;;7.24;100.00;100371.44;4919102;29;20838;-64
2023/03/26 04:14:55;;;;;;;15.82;3.17;;;;;;;7.25;100.00;100375.81;4913714;29;20028;-65
2023/03/26 04:17:21;;;;;;;18.20;3.28;;;;;;;7.23;100.00;100362.81;4915229;29;20035;-65
2023/03/26 04:19:54;;;;;;;14.27;3.03;;;;;;;7.23;100.00;100351.59;4913539;29;20038;-65
2023/03/26 04:22:20;;;;;;;16.38;3.45;;;;;;;7.22;100.00;100347.22;4920674;29;20035;-65
2023/03/26 04:24:47;;;;;;;17.88;3.75;;;;;;;7.19;100.00;100337.63;4915650;29;20027;-65
2023/03/26 04:27:16;;;;;;;13.38;2.83;;;;;;;7.18;100.00;100332.41;4915853;29;20036;-65
2023/03/26 04:29:44;;;;;;;14.75;3.05;;;;;;;7.19;100.00;100339.38;4894076;29;20063;-65
2023/03/26 04:32:37;;;;;;;14.90;2.88;;;;;;;7.20;100.00;100330.72;4906293;29;20027;-65
2023/03/26 04:35:04;;;;;;;14.65;3.20;;;;;;;7.21;100.00;100327.31;4918087;29;20035;-65
2023/03/26 04:37:38;;;;;;;16.17;3.10;;;;;;;7.20;100.00;100315.19;4919317;29;20035;-65
2023/03/26 04:40:18;;;;;;;9.88;2.58;;;;;;;7.20;100.00;100315.19;4919113;29;20035;-65
2023/03/26 04:42:46;;;;;;;16.10;2.70;;;;;;;7.18;100.00;100311.69;4918646;29;20028;-65
2023/03/26 04:45:16;;;;;;;11.57;2.78;;;;;;;7.14;100.00;100309.00;4914833;29;20126;-65
2023/03/26 04:47:42;;;;;;;12.32;2.80;;;;;;;7.17;100.00;100303.06;4926526;29;20032;-65
2023/03/26 04:50:09;;;;;;;16.33;3.42;;;;;;;7.19;100.00;100301.38;4916357;29;20063;-65
2023/03/26 04:52:35;;;;;;;16.23;2.83;;;;;;;7.21;100.00;100293.63;4912383;29;20024;-65
2023/03/26 04:55:00;;;;;;;12.45;2.60;;;;;;;7.23;100.00;100295.44;4917155;29;20036;-65
2023/03/26 04:57:35;;;;;;;12.85;2.58;;;;;;;7.27;100.00;100291.22;4923196;29;20122;-65
2023/03/26 05:00:07;;;;;;;13.20;3.17;;;;;;;7.29;100.00;100281.78;4903269;29;20036;-65
2023/03/26 05:02:33;;;;;;;12.45;3.65;;;;;;;7.29;100.00;100279.19;4932895;29;20024;-65
2023/03/26 05:04:58;;;;;;;14.30;3.25;;;;;;;7.29;100.00;100269.69;4919657;29;20095;-65
2023/03/26 05:07:23;;;;;;;16.08;3.17;;;;;;;7.30;100.00;100273.19;4933331;29;20047;-65
2023/03/26 05:09:49;;;;;;;11.63;2.60;;;;;;;7.31;100.00;100268.03;4923446;29;20115;-65
2023/03/26 05:12:15;;;;;;;10.80;2.75;;;;;;;7.31;100.00;100265.44;4916035;29;20028;-65
2023/03/26 05:14:40;;;;;;;14.50;2.95;;;;;;;7.29;100.00;100267.09;4923835;29;20398;-65
2023/03/26 05:17:09;;;;;;;16.33;3.00;;;;;;;7.25;100.00;100257.47;4921966;29;20032;-65
2023/03/26 05:19:35;;;;;;;15.25;3.60;;;;;;;7.16;100.00;100254.66;4933394;29;20032;-65
2023/03/26 05:22:01;;;;;;;15.38;4.15;;;;;;;7.08;100.00;100251.84;4933572;29;20032;-65
2023/03/26 05:24:27;;;;;;;17.33;4.63;;;;;;;7.04;100.00;100251.69;4932976;29;20041;-65
2023/03/26 05:26:53;;;;;;;16.52;4.80;;;;;;;7.00;100.00;100240.38;4927537;29;20107;-65
2023/03/26 05:29:20;;;;;;;16.65;4.50;;;;;;;6.98;100.00;100236.88;4933070;29;20119;-65
2023/03/26 05:31:47;;;;;;;14.50;4.15;;;;;;;6.96;100.00;100236.81;4895368;29;20031;-65
2023/03/26 05:34:13;;;;;;;14.00;4.30;;;;;;;6.96;100.00;100233.38;4914134;29;20032;-66
2023/03/26 05:36:38;;;;;;;13.55;4.05;;;;;;;6.93;100.00;100233.28;4919685;29;20044;-65
2023/03/26 05:39:04;;;;;;;17.75;4.15;;;;;;;6.91;100.00;100229.78;4917688;29;20028;-65
2023/03/26 05:41:29;;;;;;;14.98;3.40;;;;;;;6.90;100.00;100223.69;4924404;29;20480;-66
2023/03/26 05:43:54;;;;;;;15.00;3.30;;;;;;;6.90;100.00;100215.94;4906014;29;20127;-65
2023/03/26 05:46:21;;;;;;;13.68;4.25;;;;;;;6.92;100.00;100221.16;4917784;29;20602;-65
2023/03/26 05:48:48;;;;;;;14.57;3.75;;;;;;;6.93;100.00;100221.19;4908660;29;20491;-65
2023/03/26 05:51:16;;;;;;;15.05;3.47;;;;;;;6.92;100.00;100222.06;4929871;29;20036;-65
2023/03/26 05:53:42;;;;;;;12.43;3.55;;;;;;;6.95;100.00;100216.06;4912584;29;20035;-65
2023/03/26 05:56:08;;;;;;;15.00;3.83;;;;;;;6.96;100.00;100212.63;4900273;29;20023;-65
2023/03/26 05:58:34;;;;;;;15.68;2.97;;;;;;;6.96;100.00;100204.88;4930641;29;20039;-65
2023/03/26 06:01:08;;;;;;;11.55;3.50;;;;;;;6.98;100.00;100208.41;4897140;29;20032;-65
2023/03/26 06:03:36;;;;;;;10.35;2.88;;;;;;;7.00;100.00;100208.44;4891364;29;20455;-65
2023/03/26 06:06:02;;;;;;;14.75;3.50;;;;;;;6.99;100.00;100204.94;4920850;29;20032;-65
2023/03/26 06:08:28;;;;;;;13.73;3.25;;;;;;;7.00;100.00;100206.72;4918530;29;20293;-66
2023/03/26 06:10:58;;;;;;;15.52;3.53;;;;;;;6.97;100.00;100197.13;4915895;29;20276;-65
2023/03/26 06:13:24;;;;;;;19.63;3.60;;;;;;;6.98;100.00;100195.44;4913201;29;20525;-65
2023/03/26 06:15:50;;;;;;;12.32;2.83;;;;;;;6.97;100.00;100193.69;4918648;29;20036;-65
2023/03/26 06:18:16;;;;;;;16.02;3.13;;;;;;;6.99;100.00;100185.94;4920278;29;20068;-65
2023/03/26 06:20:42;;;;;;;14.10;3.38;;;;;;;6.99;100.00;100186.81;4920916;29;20044;-64
2023/03/26 06:23:08;;;;;;;15.88;3.15;;;;;;;6.99;100.00;100178.19;4917568;29;20067;-65
2023/03/26 06:25:33;;;;;;;11.77;3.00;;;;;;;6.98;100.00;100174.72;4914174;29;20411;-65
2023/03/26 06:27:58;;;;;;;15.25;3.60;;;;;;;7.02;100.00;100176.53;4922465;29;20028;-65
2023/03/26 06:30:24;;;;;;;14.90;3.22;;;;;;;7.07;100.00;100168.91;4922203;29;20403;-65
2023/03/26 06:32:49;;;;;;;13.73;3.13;;;;;;;7.12;100.00;100167.31;4910859;29;20166;-65
2023/03/26 06:35:14;;;;;;;12.85;3.33;;;;;;;7.17;100.00;100170.91;4904623;29;20066;-65
2023/03/26 06:37:41;;;;;;;13.73;3.10;;;;;;;7.21;100.00;100169.25;4921901;29;20047;-65
2023/03/26 06:40:07;;;;;;;15.05;3.40;;;;;;;7.25;100.00;100171.09;4923712;29;20383;-66
2023/03/26 06:42:32;;;;;;;15.35;3.20;;;;;;;7.26;100.00;100173.72;4914586;29;20534;-65
2023/03/26 06:44:58;;;;;;;11.10;3.13;;;;;;;7.29;100.00;100178.13;4922923;29;20171;-65
2023/03/26 06:47:23;;;;;;;11.98;2.85;;;;;;;7.31;100.00;100173.84;4923139;29;20095;-65
2023/03/26 06:49:48;;;;;;;14.07;3.08;;;;;;;7.31;100.00;100173.84;4930208;29;20032;-65
2023/03/26 06:52:14;;;;;;;14.15;3.00;;;;;;;7.29;100.00;100178.13;4918978;29;20027;-65
2023/03/26 06:54:39;;;;;;;14.02;3.72;;;;;;;7.24;100.00;100177.13;4924979;29;20032;-65
2023/03/26 06:57:04;;;;;;;14.80;3.80;;;;;;;7.21;100.00;100174.44;4935460;29;20031;-65
2023/03/26 06:59:30;;;;;;;12.13;3.45;;;;;;;7.18;100.00;100184.72;4934374;29;20027;-65
2023/03/26 07:01:55;;;;;;;13.85;3.63;;;;;;;7.13;100.00;100175.13;4935415;29;20197;-65
2023/03/26 07:04:20;;;;;;;17.50;4.90;;;;;;;7.10;100.00;100174.19;4930299;29;20092;-65
2023/03/26 07:06:46;;;;;;;18.33;4.30;;;;;;;7.08;100.00;100181.00;4921992;29;20052;-65
2023/03/26 07:09:12;;;;;;;18.35;4.43;;;;;;;7.04;100.00;100172.28;4924267;29;20459;-65
2023/03/26 07:11:37;;;;;;;11.20;3.42;;;;;;;7.02;100.00;100166.19;4935448;29;20027;-65
2023/03/26 07:14:02;;;;;;;15.50;4.25;;;;;;;7.00;100.00;100170.44;4935092;29;20055;-65
2023/03/26 07:16:28;;;;;;;14.85;4.10;;;;;;;7.01;100.00;100169.63;4935425;29;20397;-65
2023/03/26 07:18:54;;;;;;;12.35;4.30;;;;;;;6.99;100.00;100166.09;4929819;29;20607;-65
2023/03/26 07:21:20;;;;;;;13.40;4.38;;;;;;;6.96;100.00;100169.47;4924009;29;20043;-65
2023/03/26 07:23:46;;;;;;;13.88;4.82;;;;;;;6.94;100.00;100159.94;4923583;29;20147;-65
2023/03/26 07:26:50;;;;;;;14.35;4.28;;;;;;;6.94;100.00;100165.97;4925154;29;20111;-65
2023/03/26 07:29:55;;;;;;;12.98;4.38;;;;;;;6.94;100.00;100162.53;4899778;29;20418;-64
2023/03/26 07:32:33;;;;;;;15.48;4.40;;;;;;;6.95;100.00;100165.16;4914855;29;20048;-64
2023/03/26 07:35:01;;;;;;;13.43;3.75;;;;;;;6.94;100.00;100154.75;4914768;29;20028;-65
2023/03/26 07:37:34;;;;;;;13.15;4.35;;;;;;;6.93;100.00;100155.59;4917057;29;20032;-65
2023/03/26 07:40:42;;;;;;;15.50;4.78;;;;;;;6.94;100.00;100152.16;4916097;29;20047;-65
2023/03/26 07:43:39;;;;;;;15.65;4.63;;;;;;;6.95;100.00;100148.72;4914575;29;20043;-64
2023/03/26 07:46:10;;;;;;;17.13;4.57;;;;;;;6.96;100.00;100148.75;4917030;29;20099;-65
2023/03/26 07:48:41;;;;;;;11.80;4.07;;;;;;;6.99;100.00;100144.50;4916775;29;21084;-64
2023/03/26 07:51:08;;;;;;;13.13;4.20;;;;;;;7.00;100.00;100141.09;4894949;29;20036;-65
2023/03/26 07:53:33;;;;;;;12.02;3.90;;;;;;;7.00;100.00;100141.09;4906117;29;20086;-65
2023/03/26 07:56:13;;;;;;;13.85;4.53;;;;;;;7.01;100.00;100138.53;4914006;29;20047;-65
2023/03/26 07:58:45;;;;;;;13.93;3.88;;;;;;;7.02;100.00;100134.22;4914265;29;20581;-64
2023/03/26 08:01:31;;;;;;;19.00;5.22;;;;;;;7.02;100.00;100132.50;4908706;29;20032;-64
2023/03/26 08:04:09;;;;;;;14.10;4.55;;;;;;;7.02;100.00;100135.09;4918336;29;20814;-65
2023/03/26 08:06:36;;;;;;;18.50;5.97;;;;;;;7.03;100.00;100131.69;4926196;29;20111;-65
2023/03/26 08:09:16;;;;;;;19.08;4.30;;;;;;;7.04;100.00;100130.84;4915499;29;20028;-65
2023/03/26 08:12:00;;;;;;;14.88;3.75;;;;;;;7.08;100.00;100127.50;4911286;29;20439;-65
2023/03/26 08:14:47;;;;;;;13.05;4.13;;;;;;;7.13;100.00;100131.06;4912052;29;20107;-65
2023/03/26 08:17:57;;;;;;;18.70;4.68;;;;;;;7.20;100.00;100120.88;4914946;29;20103;-65
2023/03/26 08:20:49;;;;;;;16.38;4.40;;;;;;;7.24;100.00;100125.28;4911093;29;20046;-65
2023/03/26 08:23:23;;;;;;;15.38;4.72;;;;;;;7.28;100.00;100124.53;4892343;29;20096;-65
2023/03/26 08:25:58;;;;;;;13.20;4.10;;;;;;;7.29;100.00;100128.88;4912965;29;20068;-65
2023/03/26 08:28:48;;;;;;;13.18;4.35;;;;;;;7.31;100.00;100127.19;4907633;29;21381;-65
2023/03/26 08:31:16;;;;;;;15.60;4.95;;;;;;;7.35;100.00;100123.84;4905512;29;20035;-65
2023/03/26 08:33:42;;;;;;;13.38;5.20;;;;;;;7.39;100.00;100117.91;4903434;29;20054;-64
2023/03/26 08:36:08;;;;;;;14.52;4.65;;;;;;;7.42;100.00;100120.56;4911321;29;20395;-65
2023/03/26 08:38:34;;;;;;;13.18;5.00;;;;;;;7.45;100.00;100123.25;4922840;29;20490;-65
2023/03/26 08:41:11;;;;;;;19.75;5.68;;;;;;;7.48;100.00;100122.44;4923037;29;20031;-65
2023/03/26 08:44:14;;;;;;;15.32;4.68;;;;;;;7.52;100.00;100121.69;4921178;29;20529;-65
2023/03/26 08:47:09;;;;;;;14.57;4.13;;;;;;;7.58;100.00;100120.97;4902198;29;20031;-66
2023/03/26 08:50:02;;;;;;;12.10;4.57;;;;;;;7.59;100.00;100118.41;4911002;29;20031;-69
2023/03/26 08:52:46;;;;;;;11.52;3.85;;;;;;;7.63;100.00;100125.41;4907436;29;20024;-70
2023/03/26 08:55:55;;;;;;;12.68;3.40;;;;;;;7.65;100.00;100117.66;4920537;29;20112;-70
2023/03/26 08:58:55;;;;;;;14.77;3.72;;;;;;;7.68;100.00;100114.28;4913750;29;20119;-70
2023/03/26 09:02:01;;;;;;;14.82;3.78;;;;;;;7.69;100.00;100103.94;4915326;29;20118;-70
2023/03/26 09:04:39;;;;;;;13.50;4.57;;;;;;;7.71;100.00;100112.63;4923957;29;20038;-69
2023/03/26 09:07:50;;;;;;;11.85;4.82;;;;;;;7.72;100.00;100105.72;4929219;29;20073;-70
2023/03/26 09:10:19;;;;;;;16.35;5.00;;;;;;;7.76;100.00;100104.94;4933325;29;20023;-71
2023/03/26 09:12:53;;;;;;;14.50;4.13;;;;;;;7.79;100.00;100108.50;4933380;29;20106;-70
2023/03/26 09:15:30;;;;;;;17.48;4.60;;;;;;;7.81;100.00;100103.34;4933484;29;20032;-70
2023/03/26 09:18:17;;;;;;;13.48;4.35;;;;;;;7.83;100.00;100109.44;4933332;29;20023;-70
2023/03/26 09:21:12;;;;;;;13.65;3.75;;;;;;;7.82;100.00;100111.16;4929271;29;20135;-71
2023/03/26 09:23:44;;;;;;;12.48;4.30;;;;;;;7.82;100.00;100102.47;4922391;29;20541;-70
2023/03/26 09:26:40;;;;;;;17.13;4.63;;;;;;;7.83;100.00;100105.13;4933269;29;20082;-71
2023/03/26 09:29:33;;;;;;;11.43;3.70;;;;;;;7.87;100.00;100105.19;4921236;29;20499;-71
2023/03/26 09:32:28;;;;;;;12.20;3.35;;;;;;;7.86;100.00;100103.44;4933315;29;20031;-71
2023/03/26 09:35:11;;;;;;;14.45;2.63;;;;;;;7.82;100.00;100105.97;4933254;29;20211;-71
2023/03/26 09:37:55;;;;;;;8.55;3.15;;;;;;;7.80;100.00;100105.03;4934288;29;20032;-70
2023/03/26 09:40:25;;;;;;;11.00;3.00;;;;;;;7.80;100.00;100106.78;4937236;29;20024;-70
2023/03/26 09:43:09;;;;;;;;;;;;;;;7.86;100.00;100111.22;4926231;29;20039;-70
2023/03/26 09:45:59;;;;;;;8.75;2.40;;;;;;;7.76;100.00;100107.53;4937044;29;19919;-70
2023/03/26 09:48:37;;;;;;;10.90;2.92;;;;;;;7.78;100.00;100100.69;4927402;29;20032;-70
2023/03/26 09:51:05;;;;;;;10.75;3.70;;;;;;;7.81;100.00;100103.34;4927701;29;20500;-70
2023/03/26 09:53:49;;;;;;;11.77;4.53;;;;;;;7.82;100.00;100102.47;4937062;29;20059;-70
2023/03/26 09:56:26;;;;;;;9.68;3.60;;;;;;;7.73;100.00;100100.56;4936907;29;20102;-70
2023/03/26 09:59:02;;;;;;;9.20;3.50;;;;;;;7.66;100.00;100101.25;4923570;29;20037;-70
2023/03/26 10:01:36;;;;;;;11.30;3.05;;;;;;;7.66;100.00;100103.84;4926610;29;20507;-70
2023/03/26 10:04:23;;;;;;;10.50;2.70;;;;;;;7.69;100.00;100106.53;4921885;29;20028;-70
2023/03/26 10:07:39;;;;;;;9.68;3.50;;;;;;;7.68;100.00;100112.56;4936740;29;20042;-70
2023/03/26 10:10:39;;;;;;;9.13;3.40;;;;;;;7.68;100.00;100112.56;4911971;29;20115;-70
2023/03/26 10:13:24;;;;;;;7.90;3.55;;;;;;;7.73;100.00;100113.53;4899517;29;20043;-70
2023/03/26 10:15:59;;;;;;;10.13;4.20;;;;;;;7.78;100.00;100116.25;4920068;29;20032;-70
2023/03/26 10:18:56;;;;;;;10.73;3.72;;;;;;;7.79;100.00;100105.91;4936589;29;20027;-70
2023/03/26 10:21:40;;;;;;;11.52;3.97;;;;;;;7.88;100.00;100112.13;4936351;29;20024;-70
2023/03/26 10:24:27;;;;;;;9.40;3.85;;;;;;;7.93;100.00;100111.38;4936305;29;20036;-70
2023/03/26 10:26:52;;;;;;;10.32;3.58;;;;;;;7.97;100.00;100114.94;4911031;29;20079;-70
2023/03/26 10:29:33;;;;;;;10.70;3.63;;;;;;;7.99;100.00;100114.13;4935832;29;20039;-70
2023/03/26 10:32:43;;;;;;;9.73;3.70;;;;;;;8.00;100.00;100120.19;4936052;29;20034;-70
2023/03/26 10:35:20;;;;;;;9.00;2.60;;;;;;;7.91;100.00;100120.88;4936057;29;20020;-71
2023/03/26 10:37:57;;;;;;;7.60;2.63;;;;;;;7.81;100.00;100114.59;4919069;29;20024;-71
2023/03/26 10:41:00;;;;;;;7.78;2.72;;;;;;;7.76;100.00;100118.81;4926409;29;20043;-71
2023/03/26 10:43:37;;;;;;;7.35;2.83;;;;;;;7.72;100.00;100122.16;4936037;29;20036;-71
2023/03/26 10:46:29;;;;;;;10.82;2.72;;;;;;;7.71;100.00;100119.53;4929808;29;20036;-70
2023/03/26 10:49:13;;;;;;;8.30;3.00;;;;;;;7.69;100.00;100122.09;4933109;29;20027;-70
2023/03/26 10:51:50;;;;;;;7.72;3.08;;;;;;;7.65;100.00;100126.31;4935976;29;20031;-70
2023/03/26 10:54:47;;;;;;;8.60;3.20;;;;;;;7.64;100.00;100127.16;4936265;29;20016;-71
2023/03/26 10:57:32;;;;;;;12.13;3.20;;;;;;;7.65;100.00;100131.50;4914488;29;20046;-70
2023/03/26 11:00:11;;;;;;;9.80;3.22;;;;;;;7.68;100.00;100138.47;4929283;29;20024;-71
2023/03/26 11:02:42;;;;;;;9.65;2.90;;;;;;;7.69;100.00;100129.88;4920786;29;20035;-71
2023/03/26 11:05:13;;;;;;;10.30;2.60;;;;;;;7.71;100.00;100132.50;4920167;29;20032;-70
2023/03/26 11:07:45;;;;;;;9.18;2.53;;;;;;;7.75;100.00;100132.59;4935430;29;20043;-70
2023/03/26 11:10:23;;;;;;;7.93;2.53;;;;;;;7.76;100.00;100133.47;4935624;29;20062;-70
2023/03/26 11:13:14;;;;;;;8.30;2.50;;;;;;;7.78;100.00;100137.00;4898177;29;20040;-70
2023/03/26 11:16:00;;;;;;;7.70;2.20;;;;;;;7.77;100.00;100137.81;4935151;29;20023;-70
2023/03/26 11:18:40;;;;;;;7.13;2.10;;;;;;;7.78;100.00;100134.41;4935257;29;20024;-70
2023/03/26 11:21:20;;;;;;;8.77;2.90;;;;;;;7.84;100.00;100139.72;4935411;29;20031;-70
2023/03/26 11:23:45;;;;;;;9.52;2.47;;;;;;;7.92;100.00;100142.47;4934068;29;20072;-70
2023/03/26 11:26:28;;;;;;;5.87;2.20;;;;;;;7.97;100.00;100151.25;4925092;29;20052;-70
2023/03/26 11:29:12;;;;;;;7.63;2.03;;;;;;;7.94;100.00;100149.47;4918004;29;20284;-70
2023/03/26 11:31:57;;;;;;;5.13;1.90;;;;;;;7.98;100.00;100147.81;4917781;29;20035;-70
2023/03/26 11:34:35;;;;;;;6.43;2.00;;;;;;;8.05;100.00;100151.41;4927544;29;20024;-70
2023/03/26 11:37:03;;;;;;;6.68;2.35;;;;;;;8.10;100.00;100155.00;4910860;29;20059;-70
2023/03/26 11:39:41;;;;;;;5.85;2.13;;;;;;;8.15;100.00;100156.88;4935000;29;20093;-70
2023/03/26 11:42:12;;;;;;;9.05;2.70;;;;;;;8.21;100.00;100152.63;4934942;29;20019;-70
2023/03/26 11:44:42;;;;;;;8.32;2.60;;;;;;;8.24;100.00;100156.19;4934796;29;20047;-69
2023/03/26 11:47:11;;;;;;;6.03;2.45;;;;;;;8.29;100.00;100157.16;4934763;29;20028;-69